<?xml version="1.0" encoding="UTF-8" standalone="no" ?>
<gpx xmlns="http://www.topografix.com/GPX/1/1" xmlns:xsi="http://www.w3.org/2001/XMLSchema-instance" xsi:schemaLocation="http://www.topografix.com/GPX/1/1 http://www.topografix.com/GPX/1/1/gpx.xsd" version="1.1" creator="VisuGPX - https://www.visugpx.com">
  <metadata>
    <name>sortie 6-10-17</name>
    <desc><![CDATA[marche nordique du 6 octobre 2017]]></desc>
  </metadata>
  <trk>
    <name><![CDATA[20171006_082352.gpx]]></name>
    <trkseg>
      <trkpt lat="43.76938" lon="7.28468">
        <ele>388</ele>
        <time>2017-10-06T06:23:59Z</time>
      </trkpt>
      <trkpt lat="43.76939" lon="7.28467">
        <ele>406</ele>
        <time>2017-10-06T06:27:38Z</time>
      </trkpt>
      <trkpt lat="43.76944" lon="7.28477">
        <ele>351.8</ele>
      </trkpt>
      <trkpt lat="43.76951" lon="7.28503">
        <ele>413</ele>
        <time>2017-10-06T06:29:04Z</time>
      </trkpt>
      <trkpt lat="43.76958" lon="7.28507">
        <ele>417</ele>
        <time>2017-10-06T06:29:14Z</time>
      </trkpt>
      <trkpt lat="43.76965" lon="7.28513">
        <ele>421</ele>
        <time>2017-10-06T06:29:24Z</time>
      </trkpt>
      <trkpt lat="43.76977" lon="7.28533">
        <ele>367.4</ele>
      </trkpt>
      <trkpt lat="43.76989" lon="7.28552">
        <ele>370.6</ele>
      </trkpt>
      <trkpt lat="43.76999" lon="7.28555">
        <ele>371.1</ele>
      </trkpt>
      <trkpt lat="43.77015" lon="7.2857">
        <ele>371</ele>
      </trkpt>
      <trkpt lat="43.77035" lon="7.28581">
        <ele>370.1</ele>
      </trkpt>
      <trkpt lat="43.77073" lon="7.28569">
        <ele>372.1</ele>
      </trkpt>
      <trkpt lat="43.77104" lon="7.28553">
        <ele>434</ele>
        <time>2017-10-06T06:32:21Z</time>
      </trkpt>
      <trkpt lat="43.77117" lon="7.28554">
        <ele>361.1</ele>
      </trkpt>
      <trkpt lat="43.77118" lon="7.28583">
        <ele>363.8</ele>
      </trkpt>
      <trkpt lat="43.77113" lon="7.28617">
        <ele>371.6</ele>
      </trkpt>
      <trkpt lat="43.77109" lon="7.28635">
        <ele>373.3</ele>
      </trkpt>
      <trkpt lat="43.77099" lon="7.28657">
        <ele>466</ele>
        <time>2017-10-06T06:56:26Z</time>
      </trkpt>
      <trkpt lat="43.77096" lon="7.28669">
        <ele>471</ele>
        <time>2017-10-06T06:56:36Z</time>
      </trkpt>
      <trkpt lat="43.7709" lon="7.28685">
        <ele>471</ele>
        <time>2017-10-06T06:56:46Z</time>
      </trkpt>
      <trkpt lat="43.77088" lon="7.28692">
        <ele>470</ele>
        <time>2017-10-06T06:56:51Z</time>
      </trkpt>
      <trkpt lat="43.77084" lon="7.28708">
        <ele>377.3</ele>
      </trkpt>
      <trkpt lat="43.77079" lon="7.28721">
        <ele>399</ele>
      </trkpt>
      <trkpt lat="43.77071" lon="7.28731">
        <ele>462</ele>
        <time>2017-10-06T06:57:21Z</time>
      </trkpt>
      <trkpt lat="43.77069" lon="7.28736">
        <ele>462</ele>
        <time>2017-10-06T06:57:26Z</time>
      </trkpt>
      <trkpt lat="43.77067" lon="7.28746">
        <ele>462</ele>
        <time>2017-10-06T06:57:35Z</time>
      </trkpt>
      <trkpt lat="43.77061" lon="7.28756">
        <ele>464</ele>
        <time>2017-10-06T06:57:47Z</time>
      </trkpt>
      <trkpt lat="43.77046" lon="7.28766">
        <ele>400.7</ele>
      </trkpt>
      <trkpt lat="43.77035" lon="7.28778">
        <ele>402.9</ele>
      </trkpt>
      <trkpt lat="43.7702" lon="7.28792">
        <ele>404.7</ele>
      </trkpt>
      <trkpt lat="43.76996" lon="7.28817">
        <ele>489</ele>
        <time>2017-10-06T06:58:57Z</time>
      </trkpt>
      <trkpt lat="43.76966" lon="7.28871">
        <ele>421.3</ele>
      </trkpt>
      <trkpt lat="43.76945" lon="7.289">
        <ele>424.5</ele>
      </trkpt>
      <trkpt lat="43.76928" lon="7.28936">
        <ele>425.1</ele>
      </trkpt>
      <trkpt lat="43.76927" lon="7.28957">
        <ele>422.6</ele>
      </trkpt>
      <trkpt lat="43.76931" lon="7.28967">
        <ele>494</ele>
        <time>2017-10-06T07:00:57Z</time>
      </trkpt>
      <trkpt lat="43.76931" lon="7.28982">
        <ele>495</ele>
        <time>2017-10-06T07:01:07Z</time>
      </trkpt>
      <trkpt lat="43.76927" lon="7.29027">
        <ele>430.7</ele>
      </trkpt>
      <trkpt lat="43.76921" lon="7.29051">
        <ele>488</ele>
        <time>2017-10-06T07:01:47Z</time>
      </trkpt>
      <trkpt lat="43.7692" lon="7.29055">
        <ele>494</ele>
        <time>2017-10-06T07:02:02Z</time>
      </trkpt>
      <trkpt lat="43.76923" lon="7.29054">
        <ele>497</ele>
        <time>2017-10-06T07:02:07Z</time>
      </trkpt>
      <trkpt lat="43.76934" lon="7.29056">
        <ele>498</ele>
        <time>2017-10-06T07:02:17Z</time>
      </trkpt>
      <trkpt lat="43.76939" lon="7.2905">
        <ele>504</ele>
        <time>2017-10-06T07:02:27Z</time>
      </trkpt>
      <trkpt lat="43.76943" lon="7.29044">
        <ele>506</ele>
        <time>2017-10-06T07:02:36Z</time>
      </trkpt>
      <trkpt lat="43.76952" lon="7.2904">
        <ele>508</ele>
        <time>2017-10-06T07:02:47Z</time>
      </trkpt>
      <trkpt lat="43.76959" lon="7.29038">
        <ele>506</ele>
        <time>2017-10-06T07:02:52Z</time>
      </trkpt>
      <trkpt lat="43.76965" lon="7.29031">
        <ele>508</ele>
        <time>2017-10-06T07:03:02Z</time>
      </trkpt>
      <trkpt lat="43.76969" lon="7.29033">
        <ele>508</ele>
        <time>2017-10-06T07:03:07Z</time>
      </trkpt>
      <trkpt lat="43.76981" lon="7.29028">
        <ele>506</ele>
        <time>2017-10-06T07:03:17Z</time>
      </trkpt>
      <trkpt lat="43.76986" lon="7.29026">
        <ele>502</ele>
        <time>2017-10-06T07:03:22Z</time>
      </trkpt>
      <trkpt lat="43.76992" lon="7.29021">
        <ele>501</ele>
        <time>2017-10-06T07:03:27Z</time>
      </trkpt>
      <trkpt lat="43.77004" lon="7.29019">
        <ele>499</ele>
        <time>2017-10-06T07:03:37Z</time>
      </trkpt>
      <trkpt lat="43.77014" lon="7.29017">
        <ele>499</ele>
        <time>2017-10-06T07:03:47Z</time>
      </trkpt>
      <trkpt lat="43.77025" lon="7.29018">
        <ele>497</ele>
        <time>2017-10-06T07:03:57Z</time>
      </trkpt>
      <trkpt lat="43.77031" lon="7.29017">
        <ele>496</ele>
        <time>2017-10-06T07:04:02Z</time>
      </trkpt>
      <trkpt lat="43.77037" lon="7.29017">
        <ele>496</ele>
        <time>2017-10-06T07:04:07Z</time>
      </trkpt>
      <trkpt lat="43.77044" lon="7.29017">
        <ele>495</ele>
        <time>2017-10-06T07:04:12Z</time>
      </trkpt>
      <trkpt lat="43.77054" lon="7.29021">
        <ele>497</ele>
        <time>2017-10-06T07:04:23Z</time>
      </trkpt>
      <trkpt lat="43.77059" lon="7.29022">
        <ele>498</ele>
        <time>2017-10-06T07:04:28Z</time>
      </trkpt>
      <trkpt lat="43.77069" lon="7.29024">
        <ele>500</ele>
        <time>2017-10-06T07:04:38Z</time>
      </trkpt>
      <trkpt lat="43.77079" lon="7.29028">
        <ele>499</ele>
        <time>2017-10-06T07:04:48Z</time>
      </trkpt>
      <trkpt lat="43.77088" lon="7.29031">
        <ele>500</ele>
        <time>2017-10-06T07:04:57Z</time>
      </trkpt>
      <trkpt lat="43.77096" lon="7.29035">
        <ele>500</ele>
        <time>2017-10-06T07:05:03Z</time>
      </trkpt>
      <trkpt lat="43.77101" lon="7.29039">
        <ele>499</ele>
        <time>2017-10-06T07:05:09Z</time>
      </trkpt>
      <trkpt lat="43.77107" lon="7.29044">
        <ele>498</ele>
        <time>2017-10-06T07:05:14Z</time>
      </trkpt>
      <trkpt lat="43.77111" lon="7.2905">
        <ele>496</ele>
        <time>2017-10-06T07:05:19Z</time>
      </trkpt>
      <trkpt lat="43.77116" lon="7.29055">
        <ele>495</ele>
        <time>2017-10-06T07:05:24Z</time>
      </trkpt>
      <trkpt lat="43.77119" lon="7.29062">
        <ele>496</ele>
        <time>2017-10-06T07:05:31Z</time>
      </trkpt>
      <trkpt lat="43.77119" lon="7.29086">
        <ele>433</ele>
      </trkpt>
      <trkpt lat="43.7711" lon="7.29118">
        <ele>436.9</ele>
      </trkpt>
      <trkpt lat="43.77113" lon="7.29156">
        <ele>441.6</ele>
      </trkpt>
      <trkpt lat="43.77107" lon="7.29194">
        <ele>451.4</ele>
      </trkpt>
      <trkpt lat="43.77108" lon="7.29223">
        <ele>452.9</ele>
      </trkpt>
      <trkpt lat="43.77117" lon="7.29262">
        <ele>460</ele>
      </trkpt>
      <trkpt lat="43.77126" lon="7.29285">
        <ele>458.5</ele>
      </trkpt>
      <trkpt lat="43.77133" lon="7.29313">
        <ele>458.7</ele>
      </trkpt>
      <trkpt lat="43.77137" lon="7.29339">
        <ele>468.4</ele>
      </trkpt>
      <trkpt lat="43.77133" lon="7.29362">
        <ele>473</ele>
      </trkpt>
      <trkpt lat="43.7714" lon="7.2937">
        <ele>521</ele>
        <time>2017-10-06T07:09:27Z</time>
      </trkpt>
      <trkpt lat="43.7715" lon="7.29372">
        <ele>522</ele>
        <time>2017-10-06T07:09:37Z</time>
      </trkpt>
      <trkpt lat="43.77161" lon="7.29373">
        <ele>526</ele>
        <time>2017-10-06T07:09:47Z</time>
      </trkpt>
      <trkpt lat="43.77166" lon="7.29372">
        <ele>526</ele>
        <time>2017-10-06T07:09:52Z</time>
      </trkpt>
      <trkpt lat="43.77173" lon="7.29373">
        <ele>527</ele>
        <time>2017-10-06T07:09:57Z</time>
      </trkpt>
      <trkpt lat="43.77182" lon="7.29372">
        <ele>530</ele>
        <time>2017-10-06T07:10:07Z</time>
      </trkpt>
      <trkpt lat="43.77193" lon="7.29372">
        <ele>532</ele>
        <time>2017-10-06T07:10:17Z</time>
      </trkpt>
      <trkpt lat="43.772" lon="7.29372">
        <ele>529</ele>
        <time>2017-10-06T07:10:22Z</time>
      </trkpt>
      <trkpt lat="43.77205" lon="7.2937">
        <ele>529</ele>
        <time>2017-10-06T07:10:27Z</time>
      </trkpt>
      <trkpt lat="43.77217" lon="7.29371">
        <ele>526</ele>
        <time>2017-10-06T07:10:37Z</time>
      </trkpt>
      <trkpt lat="43.7723" lon="7.29375">
        <ele>456.1</ele>
      </trkpt>
      <trkpt lat="43.77226" lon="7.29402">
        <ele>457</ele>
      </trkpt>
      <trkpt lat="43.77212" lon="7.29419">
        <ele>537</ele>
        <time>2017-10-06T07:11:17Z</time>
      </trkpt>
      <trkpt lat="43.77208" lon="7.29433">
        <ele>538</ele>
        <time>2017-10-06T07:11:27Z</time>
      </trkpt>
      <trkpt lat="43.77205" lon="7.29441">
        <ele>538</ele>
        <time>2017-10-06T07:11:32Z</time>
      </trkpt>
      <trkpt lat="43.77205" lon="7.29447">
        <ele>539</ele>
        <time>2017-10-06T07:11:37Z</time>
      </trkpt>
      <trkpt lat="43.77201" lon="7.29452">
        <ele>542</ele>
        <time>2017-10-06T07:11:42Z</time>
      </trkpt>
      <trkpt lat="43.77196" lon="7.29467">
        <ele>547</ele>
        <time>2017-10-06T07:11:52Z</time>
      </trkpt>
      <trkpt lat="43.77189" lon="7.29473">
        <ele>546</ele>
        <time>2017-10-06T07:11:57Z</time>
      </trkpt>
      <trkpt lat="43.77184" lon="7.29488">
        <ele>545</ele>
        <time>2017-10-06T07:12:07Z</time>
      </trkpt>
      <trkpt lat="43.77184" lon="7.29494">
        <ele>549</ele>
        <time>2017-10-06T07:12:12Z</time>
      </trkpt>
      <trkpt lat="43.77179" lon="7.29498">
        <ele>550</ele>
        <time>2017-10-06T07:12:17Z</time>
      </trkpt>
      <trkpt lat="43.77174" lon="7.2951">
        <ele>550</ele>
        <time>2017-10-06T07:12:27Z</time>
      </trkpt>
      <trkpt lat="43.7717" lon="7.29516">
        <ele>548</ele>
        <time>2017-10-06T07:12:32Z</time>
      </trkpt>
      <trkpt lat="43.77165" lon="7.29524">
        <ele>548</ele>
        <time>2017-10-06T07:12:37Z</time>
      </trkpt>
      <trkpt lat="43.77156" lon="7.29533">
        <ele>546</ele>
        <time>2017-10-06T07:12:42Z</time>
      </trkpt>
      <trkpt lat="43.77152" lon="7.29542">
        <ele>547</ele>
        <time>2017-10-06T07:12:47Z</time>
      </trkpt>
      <trkpt lat="43.77148" lon="7.29549">
        <ele>546</ele>
        <time>2017-10-06T07:12:52Z</time>
      </trkpt>
      <trkpt lat="43.77148" lon="7.29558">
        <ele>543</ele>
        <time>2017-10-06T07:12:57Z</time>
      </trkpt>
      <trkpt lat="43.77151" lon="7.29563">
        <ele>542</ele>
        <time>2017-10-06T07:13:02Z</time>
      </trkpt>
      <trkpt lat="43.77159" lon="7.29572">
        <ele>540</ele>
        <time>2017-10-06T07:13:11Z</time>
      </trkpt>
      <trkpt lat="43.77161" lon="7.29577">
        <ele>543</ele>
        <time>2017-10-06T07:13:17Z</time>
      </trkpt>
      <trkpt lat="43.7716" lon="7.29594">
        <ele>544</ele>
        <time>2017-10-06T07:13:27Z</time>
      </trkpt>
      <trkpt lat="43.77156" lon="7.29608">
        <ele>546</ele>
        <time>2017-10-06T07:13:37Z</time>
      </trkpt>
      <trkpt lat="43.77153" lon="7.29616">
        <ele>546</ele>
        <time>2017-10-06T07:13:42Z</time>
      </trkpt>
      <trkpt lat="43.7715" lon="7.29622">
        <ele>548</ele>
        <time>2017-10-06T07:13:47Z</time>
      </trkpt>
      <trkpt lat="43.77146" lon="7.29631">
        <ele>546</ele>
        <time>2017-10-06T07:13:52Z</time>
      </trkpt>
      <trkpt lat="43.77145" lon="7.2964">
        <ele>545</ele>
        <time>2017-10-06T07:13:57Z</time>
      </trkpt>
      <trkpt lat="43.77153" lon="7.29651">
        <ele>545</ele>
        <time>2017-10-06T07:14:07Z</time>
      </trkpt>
      <trkpt lat="43.77158" lon="7.29653">
        <ele>545</ele>
        <time>2017-10-06T07:14:12Z</time>
      </trkpt>
      <trkpt lat="43.77161" lon="7.29654">
        <ele>546</ele>
        <time>2017-10-06T07:14:17Z</time>
      </trkpt>
      <trkpt lat="43.77168" lon="7.29655">
        <ele>545</ele>
        <time>2017-10-06T07:14:22Z</time>
      </trkpt>
      <trkpt lat="43.77174" lon="7.29665">
        <ele>540</ele>
        <time>2017-10-06T07:14:32Z</time>
      </trkpt>
      <trkpt lat="43.77177" lon="7.29671">
        <ele>542</ele>
        <time>2017-10-06T07:14:37Z</time>
      </trkpt>
      <trkpt lat="43.77179" lon="7.29681">
        <ele>540</ele>
        <time>2017-10-06T07:14:42Z</time>
      </trkpt>
      <trkpt lat="43.77182" lon="7.2969">
        <ele>540</ele>
        <time>2017-10-06T07:14:47Z</time>
      </trkpt>
      <trkpt lat="43.77182" lon="7.297">
        <ele>540</ele>
        <time>2017-10-06T07:14:52Z</time>
      </trkpt>
      <trkpt lat="43.77183" lon="7.29708">
        <ele>540</ele>
        <time>2017-10-06T07:14:57Z</time>
      </trkpt>
      <trkpt lat="43.77186" lon="7.29725">
        <ele>539</ele>
        <time>2017-10-06T07:15:07Z</time>
      </trkpt>
      <trkpt lat="43.77189" lon="7.29733">
        <ele>538</ele>
        <time>2017-10-06T07:15:12Z</time>
      </trkpt>
      <trkpt lat="43.7719" lon="7.29742">
        <ele>537</ele>
        <time>2017-10-06T07:15:17Z</time>
      </trkpt>
      <trkpt lat="43.77192" lon="7.29751">
        <ele>536</ele>
        <time>2017-10-06T07:15:22Z</time>
      </trkpt>
      <trkpt lat="43.77192" lon="7.29759">
        <ele>536</ele>
        <time>2017-10-06T07:15:27Z</time>
      </trkpt>
      <trkpt lat="43.77192" lon="7.29767">
        <ele>537</ele>
        <time>2017-10-06T07:15:32Z</time>
      </trkpt>
      <trkpt lat="43.77194" lon="7.29778">
        <ele>536</ele>
        <time>2017-10-06T07:15:37Z</time>
      </trkpt>
      <trkpt lat="43.77193" lon="7.29787">
        <ele>537</ele>
        <time>2017-10-06T07:15:42Z</time>
      </trkpt>
      <trkpt lat="43.77192" lon="7.29795">
        <ele>539</ele>
        <time>2017-10-06T07:15:47Z</time>
      </trkpt>
      <trkpt lat="43.77192" lon="7.29803">
        <ele>539</ele>
        <time>2017-10-06T07:15:52Z</time>
      </trkpt>
      <trkpt lat="43.77194" lon="7.29811">
        <ele>539</ele>
        <time>2017-10-06T07:15:57Z</time>
      </trkpt>
      <trkpt lat="43.77192" lon="7.29818">
        <ele>538</ele>
        <time>2017-10-06T07:16:02Z</time>
      </trkpt>
      <trkpt lat="43.77186" lon="7.2983">
        <ele>542</ele>
        <time>2017-10-06T07:16:12Z</time>
      </trkpt>
      <trkpt lat="43.77184" lon="7.2984">
        <ele>542</ele>
        <time>2017-10-06T07:16:17Z</time>
      </trkpt>
      <trkpt lat="43.77182" lon="7.29849">
        <ele>541</ele>
        <time>2017-10-06T07:16:22Z</time>
      </trkpt>
      <trkpt lat="43.77181" lon="7.29858">
        <ele>541</ele>
        <time>2017-10-06T07:16:27Z</time>
      </trkpt>
      <trkpt lat="43.77178" lon="7.29866">
        <ele>540</ele>
        <time>2017-10-06T07:16:32Z</time>
      </trkpt>
      <trkpt lat="43.77174" lon="7.29874">
        <ele>541</ele>
        <time>2017-10-06T07:16:37Z</time>
      </trkpt>
      <trkpt lat="43.77172" lon="7.29881">
        <ele>540</ele>
        <time>2017-10-06T07:16:42Z</time>
      </trkpt>
      <trkpt lat="43.77169" lon="7.2989">
        <ele>539</ele>
        <time>2017-10-06T07:16:47Z</time>
      </trkpt>
      <trkpt lat="43.77165" lon="7.29898">
        <ele>537</ele>
        <time>2017-10-06T07:16:52Z</time>
      </trkpt>
      <trkpt lat="43.77162" lon="7.29908">
        <ele>537</ele>
        <time>2017-10-06T07:16:57Z</time>
      </trkpt>
      <trkpt lat="43.77161" lon="7.29916">
        <ele>536</ele>
        <time>2017-10-06T07:17:02Z</time>
      </trkpt>
      <trkpt lat="43.77158" lon="7.29923">
        <ele>536</ele>
        <time>2017-10-06T07:17:09Z</time>
      </trkpt>
      <trkpt lat="43.77157" lon="7.29929">
        <ele>535</ele>
        <time>2017-10-06T07:17:17Z</time>
      </trkpt>
      <trkpt lat="43.77161" lon="7.29938">
        <ele>528</ele>
        <time>2017-10-06T07:23:55Z</time>
      </trkpt>
      <trkpt lat="43.77161" lon="7.29947">
        <ele>532</ele>
        <time>2017-10-06T07:24:05Z</time>
      </trkpt>
      <trkpt lat="43.7716" lon="7.29958">
        <ele>534</ele>
        <time>2017-10-06T07:24:15Z</time>
      </trkpt>
      <trkpt lat="43.77161" lon="7.29967">
        <ele>534</ele>
        <time>2017-10-06T07:24:25Z</time>
      </trkpt>
      <trkpt lat="43.77159" lon="7.29973">
        <ele>532</ele>
        <time>2017-10-06T07:24:42Z</time>
      </trkpt>
      <trkpt lat="43.77157" lon="7.29982">
        <ele>530</ele>
        <time>2017-10-06T07:24:52Z</time>
      </trkpt>
      <trkpt lat="43.77156" lon="7.29994">
        <ele>530</ele>
        <time>2017-10-06T07:25:07Z</time>
      </trkpt>
      <trkpt lat="43.77159" lon="7.30008">
        <ele>532</ele>
        <time>2017-10-06T07:25:17Z</time>
      </trkpt>
      <trkpt lat="43.77161" lon="7.30014">
        <ele>531</ele>
        <time>2017-10-06T07:25:22Z</time>
      </trkpt>
      <trkpt lat="43.77166" lon="7.30028">
        <ele>532</ele>
        <time>2017-10-06T07:25:32Z</time>
      </trkpt>
      <trkpt lat="43.77174" lon="7.30036">
        <ele>530</ele>
        <time>2017-10-06T07:25:42Z</time>
      </trkpt>
      <trkpt lat="43.77182" lon="7.30038">
        <ele>530</ele>
        <time>2017-10-06T07:25:49Z</time>
      </trkpt>
      <trkpt lat="43.77188" lon="7.30039">
        <ele>530</ele>
        <time>2017-10-06T07:25:54Z</time>
      </trkpt>
      <trkpt lat="43.77196" lon="7.30038">
        <ele>533</ele>
        <time>2017-10-06T07:26:01Z</time>
      </trkpt>
      <trkpt lat="43.77205" lon="7.30047">
        <ele>533</ele>
        <time>2017-10-06T07:26:13Z</time>
      </trkpt>
      <trkpt lat="43.77206" lon="7.30053">
        <ele>534</ele>
        <time>2017-10-06T07:26:18Z</time>
      </trkpt>
      <trkpt lat="43.77206" lon="7.3006">
        <ele>534</ele>
        <time>2017-10-06T07:26:26Z</time>
      </trkpt>
      <trkpt lat="43.77205" lon="7.30067">
        <ele>533</ele>
        <time>2017-10-06T07:26:37Z</time>
      </trkpt>
      <trkpt lat="43.77206" lon="7.30074">
        <ele>534</ele>
        <time>2017-10-06T07:26:59Z</time>
      </trkpt>
      <trkpt lat="43.77205" lon="7.30088">
        <ele>534</ele>
        <time>2017-10-06T07:27:11Z</time>
      </trkpt>
      <trkpt lat="43.77206" lon="7.30096">
        <ele>535</ele>
        <time>2017-10-06T07:27:16Z</time>
      </trkpt>
      <trkpt lat="43.77206" lon="7.30111">
        <ele>537</ele>
        <time>2017-10-06T07:27:26Z</time>
      </trkpt>
      <trkpt lat="43.77206" lon="7.30125">
        <ele>538</ele>
        <time>2017-10-06T07:27:36Z</time>
      </trkpt>
      <trkpt lat="43.77208" lon="7.30134">
        <ele>539</ele>
        <time>2017-10-06T07:27:41Z</time>
      </trkpt>
      <trkpt lat="43.7721" lon="7.30148">
        <ele>539</ele>
        <time>2017-10-06T07:27:51Z</time>
      </trkpt>
      <trkpt lat="43.77211" lon="7.30157">
        <ele>538</ele>
        <time>2017-10-06T07:27:56Z</time>
      </trkpt>
      <trkpt lat="43.77214" lon="7.30171">
        <ele>539</ele>
        <time>2017-10-06T07:28:06Z</time>
      </trkpt>
      <trkpt lat="43.77216" lon="7.30179">
        <ele>539</ele>
        <time>2017-10-06T07:28:11Z</time>
      </trkpt>
      <trkpt lat="43.77218" lon="7.30186">
        <ele>539</ele>
        <time>2017-10-06T07:28:16Z</time>
      </trkpt>
      <trkpt lat="43.77221" lon="7.30193">
        <ele>539</ele>
        <time>2017-10-06T07:28:21Z</time>
      </trkpt>
      <trkpt lat="43.77224" lon="7.302">
        <ele>539</ele>
        <time>2017-10-06T07:28:26Z</time>
      </trkpt>
      <trkpt lat="43.77231" lon="7.30213">
        <ele>541</ele>
        <time>2017-10-06T07:28:36Z</time>
      </trkpt>
      <trkpt lat="43.77234" lon="7.30219">
        <ele>541</ele>
        <time>2017-10-06T07:28:41Z</time>
      </trkpt>
      <trkpt lat="43.77242" lon="7.3023">
        <ele>542</ele>
        <time>2017-10-06T07:28:51Z</time>
      </trkpt>
      <trkpt lat="43.77247" lon="7.30233">
        <ele>543</ele>
        <time>2017-10-06T07:28:56Z</time>
      </trkpt>
      <trkpt lat="43.77257" lon="7.30235">
        <ele>543</ele>
        <time>2017-10-06T07:29:06Z</time>
      </trkpt>
      <trkpt lat="43.77268" lon="7.30236">
        <ele>544</ele>
        <time>2017-10-06T07:29:16Z</time>
      </trkpt>
      <trkpt lat="43.77279" lon="7.30237">
        <ele>543</ele>
        <time>2017-10-06T07:29:26Z</time>
      </trkpt>
      <trkpt lat="43.77288" lon="7.3024">
        <ele>543</ele>
        <time>2017-10-06T07:29:35Z</time>
      </trkpt>
      <trkpt lat="43.77294" lon="7.30242">
        <ele>544</ele>
        <time>2017-10-06T07:29:41Z</time>
      </trkpt>
      <trkpt lat="43.77305" lon="7.30245">
        <ele>546</ele>
        <time>2017-10-06T07:29:51Z</time>
      </trkpt>
      <trkpt lat="43.7731" lon="7.30246">
        <ele>546</ele>
        <time>2017-10-06T07:29:56Z</time>
      </trkpt>
      <trkpt lat="43.77321" lon="7.30245">
        <ele>546</ele>
        <time>2017-10-06T07:30:06Z</time>
      </trkpt>
      <trkpt lat="43.77327" lon="7.30245">
        <ele>546</ele>
        <time>2017-10-06T07:30:11Z</time>
      </trkpt>
      <trkpt lat="43.77332" lon="7.30243">
        <ele>546</ele>
        <time>2017-10-06T07:30:16Z</time>
      </trkpt>
      <trkpt lat="43.77338" lon="7.30243">
        <ele>546</ele>
        <time>2017-10-06T07:30:21Z</time>
      </trkpt>
      <trkpt lat="43.77343" lon="7.30244">
        <ele>546</ele>
        <time>2017-10-06T07:30:26Z</time>
      </trkpt>
      <trkpt lat="43.77353" lon="7.30246">
        <ele>547</ele>
        <time>2017-10-06T07:30:36Z</time>
      </trkpt>
      <trkpt lat="43.77364" lon="7.30249">
        <ele>548</ele>
        <time>2017-10-06T07:30:46Z</time>
      </trkpt>
      <trkpt lat="43.77375" lon="7.30253">
        <ele>548</ele>
        <time>2017-10-06T07:30:56Z</time>
      </trkpt>
      <trkpt lat="43.77385" lon="7.30257">
        <ele>549</ele>
        <time>2017-10-06T07:31:06Z</time>
      </trkpt>
      <trkpt lat="43.77391" lon="7.30261">
        <ele>549</ele>
        <time>2017-10-06T07:31:11Z</time>
      </trkpt>
      <trkpt lat="43.77395" lon="7.30264">
        <ele>550</ele>
        <time>2017-10-06T07:31:16Z</time>
      </trkpt>
      <trkpt lat="43.77401" lon="7.30268">
        <ele>552</ele>
        <time>2017-10-06T07:31:21Z</time>
      </trkpt>
      <trkpt lat="43.77406" lon="7.30272">
        <ele>554</ele>
        <time>2017-10-06T07:31:26Z</time>
      </trkpt>
      <trkpt lat="43.77411" lon="7.30276">
        <ele>553</ele>
        <time>2017-10-06T07:31:31Z</time>
      </trkpt>
      <trkpt lat="43.77416" lon="7.30281">
        <ele>554</ele>
        <time>2017-10-06T07:31:36Z</time>
      </trkpt>
      <trkpt lat="43.7742" lon="7.30286">
        <ele>555</ele>
        <time>2017-10-06T07:31:41Z</time>
      </trkpt>
      <trkpt lat="43.77424" lon="7.30291">
        <ele>557</ele>
        <time>2017-10-06T07:31:46Z</time>
      </trkpt>
      <trkpt lat="43.77432" lon="7.30301">
        <ele>558</ele>
        <time>2017-10-06T07:31:56Z</time>
      </trkpt>
      <trkpt lat="43.77438" lon="7.30311">
        <ele>561</ele>
        <time>2017-10-06T07:32:05Z</time>
      </trkpt>
      <trkpt lat="43.77445" lon="7.30324">
        <ele>564</ele>
        <time>2017-10-06T07:32:16Z</time>
      </trkpt>
      <trkpt lat="43.77452" lon="7.30332">
        <ele>566</ele>
        <time>2017-10-06T07:32:26Z</time>
      </trkpt>
      <trkpt lat="43.77461" lon="7.30339">
        <ele>569</ele>
        <time>2017-10-06T07:32:36Z</time>
      </trkpt>
      <trkpt lat="43.77469" lon="7.30344">
        <ele>570</ele>
        <time>2017-10-06T07:32:46Z</time>
      </trkpt>
      <trkpt lat="43.7748" lon="7.30349">
        <ele>571</ele>
        <time>2017-10-06T07:32:56Z</time>
      </trkpt>
      <trkpt lat="43.7749" lon="7.30352">
        <ele>572</ele>
        <time>2017-10-06T07:33:06Z</time>
      </trkpt>
      <trkpt lat="43.775" lon="7.30357">
        <ele>574</ele>
        <time>2017-10-06T07:33:16Z</time>
      </trkpt>
      <trkpt lat="43.77509" lon="7.30364">
        <ele>575</ele>
        <time>2017-10-06T07:33:26Z</time>
      </trkpt>
      <trkpt lat="43.77517" lon="7.30373">
        <ele>577</ele>
        <time>2017-10-06T07:33:36Z</time>
      </trkpt>
      <trkpt lat="43.77525" lon="7.30383">
        <ele>578</ele>
        <time>2017-10-06T07:33:46Z</time>
      </trkpt>
      <trkpt lat="43.77529" lon="7.30388">
        <ele>577</ele>
        <time>2017-10-06T07:33:51Z</time>
      </trkpt>
      <trkpt lat="43.77533" lon="7.30393">
        <ele>578</ele>
        <time>2017-10-06T07:33:56Z</time>
      </trkpt>
      <trkpt lat="43.77535" lon="7.30405">
        <ele>579</ele>
        <time>2017-10-06T07:34:06Z</time>
      </trkpt>
      <trkpt lat="43.77529" lon="7.30416">
        <ele>578</ele>
        <time>2017-10-06T07:34:16Z</time>
      </trkpt>
      <trkpt lat="43.77522" lon="7.30422">
        <ele>580</ele>
        <time>2017-10-06T07:34:26Z</time>
      </trkpt>
      <trkpt lat="43.77514" lon="7.30427">
        <ele>579</ele>
        <time>2017-10-06T07:34:35Z</time>
      </trkpt>
      <trkpt lat="43.77508" lon="7.30432">
        <ele>579</ele>
        <time>2017-10-06T07:34:41Z</time>
      </trkpt>
      <trkpt lat="43.77504" lon="7.30437">
        <ele>578</ele>
        <time>2017-10-06T07:34:46Z</time>
      </trkpt>
      <trkpt lat="43.77501" lon="7.30443">
        <ele>578</ele>
        <time>2017-10-06T07:34:51Z</time>
      </trkpt>
      <trkpt lat="43.77497" lon="7.3045">
        <ele>577</ele>
        <time>2017-10-06T07:34:56Z</time>
      </trkpt>
      <trkpt lat="43.77494" lon="7.30456">
        <ele>576</ele>
        <time>2017-10-06T07:35:01Z</time>
      </trkpt>
      <trkpt lat="43.77491" lon="7.30463">
        <ele>576</ele>
        <time>2017-10-06T07:35:06Z</time>
      </trkpt>
      <trkpt lat="43.77488" lon="7.30477">
        <ele>576</ele>
        <time>2017-10-06T07:35:16Z</time>
      </trkpt>
      <trkpt lat="43.77481" lon="7.3049">
        <ele>577</ele>
        <time>2017-10-06T07:35:26Z</time>
      </trkpt>
      <trkpt lat="43.77478" lon="7.30497">
        <ele>577</ele>
        <time>2017-10-06T07:35:31Z</time>
      </trkpt>
      <trkpt lat="43.77474" lon="7.30503">
        <ele>577</ele>
        <time>2017-10-06T07:35:36Z</time>
      </trkpt>
      <trkpt lat="43.77466" lon="7.30515">
        <ele>579</ele>
        <time>2017-10-06T07:35:46Z</time>
      </trkpt>
      <trkpt lat="43.7746" lon="7.30519">
        <ele>579</ele>
        <time>2017-10-06T07:35:51Z</time>
      </trkpt>
      <trkpt lat="43.77456" lon="7.30526">
        <ele>579</ele>
        <time>2017-10-06T07:35:56Z</time>
      </trkpt>
      <trkpt lat="43.77452" lon="7.30532">
        <ele>579</ele>
        <time>2017-10-06T07:36:01Z</time>
      </trkpt>
      <trkpt lat="43.77447" lon="7.30537">
        <ele>579</ele>
        <time>2017-10-06T07:36:06Z</time>
      </trkpt>
      <trkpt lat="43.77443" lon="7.30544">
        <ele>579</ele>
        <time>2017-10-06T07:36:11Z</time>
      </trkpt>
      <trkpt lat="43.77438" lon="7.3055">
        <ele>579</ele>
        <time>2017-10-06T07:36:16Z</time>
      </trkpt>
      <trkpt lat="43.77435" lon="7.30556">
        <ele>579</ele>
        <time>2017-10-06T07:36:21Z</time>
      </trkpt>
      <trkpt lat="43.7743" lon="7.30562">
        <ele>579</ele>
        <time>2017-10-06T07:36:26Z</time>
      </trkpt>
      <trkpt lat="43.77427" lon="7.30569">
        <ele>580</ele>
        <time>2017-10-06T07:36:31Z</time>
      </trkpt>
      <trkpt lat="43.77424" lon="7.30575">
        <ele>580</ele>
        <time>2017-10-06T07:36:36Z</time>
      </trkpt>
      <trkpt lat="43.7742" lon="7.30582">
        <ele>580</ele>
        <time>2017-10-06T07:36:41Z</time>
      </trkpt>
      <trkpt lat="43.77417" lon="7.30589">
        <ele>581</ele>
        <time>2017-10-06T07:36:46Z</time>
      </trkpt>
      <trkpt lat="43.77414" lon="7.30596">
        <ele>581</ele>
        <time>2017-10-06T07:36:51Z</time>
      </trkpt>
      <trkpt lat="43.77411" lon="7.30604">
        <ele>580</ele>
        <time>2017-10-06T07:36:56Z</time>
      </trkpt>
      <trkpt lat="43.77407" lon="7.3061">
        <ele>582</ele>
        <time>2017-10-06T07:37:01Z</time>
      </trkpt>
      <trkpt lat="43.77403" lon="7.30616">
        <ele>582</ele>
        <time>2017-10-06T07:37:06Z</time>
      </trkpt>
      <trkpt lat="43.77401" lon="7.30624">
        <ele>583</ele>
        <time>2017-10-06T07:37:11Z</time>
      </trkpt>
      <trkpt lat="43.77398" lon="7.30632">
        <ele>584</ele>
        <time>2017-10-06T07:37:16Z</time>
      </trkpt>
      <trkpt lat="43.77393" lon="7.30646">
        <ele>585</ele>
        <time>2017-10-06T07:37:26Z</time>
      </trkpt>
      <trkpt lat="43.77391" lon="7.30653">
        <ele>585</ele>
        <time>2017-10-06T07:37:31Z</time>
      </trkpt>
      <trkpt lat="43.7739" lon="7.3066">
        <ele>585</ele>
        <time>2017-10-06T07:37:36Z</time>
      </trkpt>
      <trkpt lat="43.77387" lon="7.30668">
        <ele>585</ele>
        <time>2017-10-06T07:37:41Z</time>
      </trkpt>
      <trkpt lat="43.77385" lon="7.30676">
        <ele>585</ele>
        <time>2017-10-06T07:37:46Z</time>
      </trkpt>
      <trkpt lat="43.77378" lon="7.30684">
        <ele>588</ele>
        <time>2017-10-06T07:37:56Z</time>
      </trkpt>
      <trkpt lat="43.77376" lon="7.30693">
        <ele>588</ele>
        <time>2017-10-06T07:38:01Z</time>
      </trkpt>
      <trkpt lat="43.77375" lon="7.30701">
        <ele>589</ele>
        <time>2017-10-06T07:38:06Z</time>
      </trkpt>
      <trkpt lat="43.77374" lon="7.3071">
        <ele>589</ele>
        <time>2017-10-06T07:38:11Z</time>
      </trkpt>
      <trkpt lat="43.77371" lon="7.30718">
        <ele>589</ele>
        <time>2017-10-06T07:38:16Z</time>
      </trkpt>
      <trkpt lat="43.77369" lon="7.30725">
        <ele>589</ele>
        <time>2017-10-06T07:38:21Z</time>
      </trkpt>
      <trkpt lat="43.77368" lon="7.30733">
        <ele>589</ele>
        <time>2017-10-06T07:38:26Z</time>
      </trkpt>
      <trkpt lat="43.77367" lon="7.3074">
        <ele>590</ele>
        <time>2017-10-06T07:38:31Z</time>
      </trkpt>
      <trkpt lat="43.77366" lon="7.30748">
        <ele>589</ele>
        <time>2017-10-06T07:38:36Z</time>
      </trkpt>
      <trkpt lat="43.77366" lon="7.30761">
        <ele>591</ele>
        <time>2017-10-06T07:38:46Z</time>
      </trkpt>
      <trkpt lat="43.77367" lon="7.30775">
        <ele>593</ele>
        <time>2017-10-06T07:38:56Z</time>
      </trkpt>
      <trkpt lat="43.77375" lon="7.30785">
        <ele>594</ele>
        <time>2017-10-06T07:39:06Z</time>
      </trkpt>
      <trkpt lat="43.77384" lon="7.30793">
        <ele>594</ele>
        <time>2017-10-06T07:39:16Z</time>
      </trkpt>
      <trkpt lat="43.77391" lon="7.30802">
        <ele>597</ele>
        <time>2017-10-06T07:39:26Z</time>
      </trkpt>
      <trkpt lat="43.77395" lon="7.30808">
        <ele>597</ele>
        <time>2017-10-06T07:39:31Z</time>
      </trkpt>
      <trkpt lat="43.77399" lon="7.30813">
        <ele>598</ele>
        <time>2017-10-06T07:39:36Z</time>
      </trkpt>
      <trkpt lat="43.77408" lon="7.30822">
        <ele>599</ele>
        <time>2017-10-06T07:39:46Z</time>
      </trkpt>
      <trkpt lat="43.77412" lon="7.30824">
        <ele>599</ele>
        <time>2017-10-06T07:39:51Z</time>
      </trkpt>
      <trkpt lat="43.77418" lon="7.30826">
        <ele>599</ele>
        <time>2017-10-06T07:39:56Z</time>
      </trkpt>
      <trkpt lat="43.77424" lon="7.3083">
        <ele>600</ele>
        <time>2017-10-06T07:40:00Z</time>
      </trkpt>
      <trkpt lat="43.7743" lon="7.30833">
        <ele>601</ele>
        <time>2017-10-06T07:40:07Z</time>
      </trkpt>
      <trkpt lat="43.7744" lon="7.30839">
        <ele>602</ele>
        <time>2017-10-06T07:40:19Z</time>
      </trkpt>
      <trkpt lat="43.77446" lon="7.30844">
        <ele>602</ele>
        <time>2017-10-06T07:40:25Z</time>
      </trkpt>
      <trkpt lat="43.77454" lon="7.30849">
        <ele>602</ele>
        <time>2017-10-06T07:40:32Z</time>
      </trkpt>
      <trkpt lat="43.77464" lon="7.30859">
        <ele>603</ele>
        <time>2017-10-06T07:40:44Z</time>
      </trkpt>
      <trkpt lat="43.77472" lon="7.30869">
        <ele>604</ele>
        <time>2017-10-06T07:40:54Z</time>
      </trkpt>
      <trkpt lat="43.7748" lon="7.3088">
        <ele>606</ele>
        <time>2017-10-06T07:41:04Z</time>
      </trkpt>
      <trkpt lat="43.77488" lon="7.3089">
        <ele>607</ele>
        <time>2017-10-06T07:41:14Z</time>
      </trkpt>
      <trkpt lat="43.77496" lon="7.30899">
        <ele>607</ele>
        <time>2017-10-06T07:41:24Z</time>
      </trkpt>
      <trkpt lat="43.77506" lon="7.30907">
        <ele>606</ele>
        <time>2017-10-06T07:41:34Z</time>
      </trkpt>
      <trkpt lat="43.77512" lon="7.3091">
        <ele>607</ele>
        <time>2017-10-06T07:41:39Z</time>
      </trkpt>
      <trkpt lat="43.77518" lon="7.30913">
        <ele>607</ele>
        <time>2017-10-06T07:41:44Z</time>
      </trkpt>
      <trkpt lat="43.77528" lon="7.30918">
        <ele>608</ele>
        <time>2017-10-06T07:41:54Z</time>
      </trkpt>
      <trkpt lat="43.77538" lon="7.30921">
        <ele>608</ele>
        <time>2017-10-06T07:42:04Z</time>
      </trkpt>
      <trkpt lat="43.77549" lon="7.30923">
        <ele>609</ele>
        <time>2017-10-06T07:42:14Z</time>
      </trkpt>
      <trkpt lat="43.77554" lon="7.30925">
        <ele>609</ele>
        <time>2017-10-06T07:42:19Z</time>
      </trkpt>
      <trkpt lat="43.77559" lon="7.30926">
        <ele>609</ele>
        <time>2017-10-06T07:42:24Z</time>
      </trkpt>
      <trkpt lat="43.7757" lon="7.30931">
        <ele>610</ele>
        <time>2017-10-06T07:42:34Z</time>
      </trkpt>
      <trkpt lat="43.77581" lon="7.30935">
        <ele>611</ele>
        <time>2017-10-06T07:42:44Z</time>
      </trkpt>
      <trkpt lat="43.77587" lon="7.30938">
        <ele>611</ele>
        <time>2017-10-06T07:42:49Z</time>
      </trkpt>
      <trkpt lat="43.77593" lon="7.30941">
        <ele>611</ele>
        <time>2017-10-06T07:42:54Z</time>
      </trkpt>
      <trkpt lat="43.77597" lon="7.30946">
        <ele>611</ele>
        <time>2017-10-06T07:42:59Z</time>
      </trkpt>
      <trkpt lat="43.77599" lon="7.30953">
        <ele>612</ele>
        <time>2017-10-06T07:43:04Z</time>
      </trkpt>
      <trkpt lat="43.77601" lon="7.30961">
        <ele>612</ele>
        <time>2017-10-06T07:43:10Z</time>
      </trkpt>
      <trkpt lat="43.776" lon="7.30969">
        <ele>613</ele>
        <time>2017-10-06T07:43:15Z</time>
      </trkpt>
      <trkpt lat="43.77597" lon="7.30985">
        <ele>613</ele>
        <time>2017-10-06T07:43:25Z</time>
      </trkpt>
      <trkpt lat="43.77595" lon="7.31">
        <ele>614</ele>
        <time>2017-10-06T07:43:35Z</time>
      </trkpt>
      <trkpt lat="43.77597" lon="7.31015">
        <ele>617</ele>
        <time>2017-10-06T07:43:45Z</time>
      </trkpt>
      <trkpt lat="43.77597" lon="7.31023">
        <ele>618</ele>
        <time>2017-10-06T07:43:50Z</time>
      </trkpt>
      <trkpt lat="43.77598" lon="7.31038">
        <ele>619</ele>
        <time>2017-10-06T07:44:00Z</time>
      </trkpt>
      <trkpt lat="43.77599" lon="7.31046">
        <ele>619</ele>
        <time>2017-10-06T07:44:05Z</time>
      </trkpt>
      <trkpt lat="43.776" lon="7.31055">
        <ele>620</ele>
        <time>2017-10-06T07:44:10Z</time>
      </trkpt>
      <trkpt lat="43.77602" lon="7.31062">
        <ele>620</ele>
        <time>2017-10-06T07:44:15Z</time>
      </trkpt>
      <trkpt lat="43.77605" lon="7.31077">
        <ele>619</ele>
        <time>2017-10-06T07:44:25Z</time>
      </trkpt>
      <trkpt lat="43.77609" lon="7.31091">
        <ele>621</ele>
        <time>2017-10-06T07:44:35Z</time>
      </trkpt>
      <trkpt lat="43.77611" lon="7.31105">
        <ele>622</ele>
        <time>2017-10-06T07:44:45Z</time>
      </trkpt>
      <trkpt lat="43.77613" lon="7.31113">
        <ele>620</ele>
        <time>2017-10-06T07:44:53Z</time>
      </trkpt>
      <trkpt lat="43.7762" lon="7.3113">
        <ele>618</ele>
        <time>2017-10-06T07:47:12Z</time>
      </trkpt>
      <trkpt lat="43.77622" lon="7.31136">
        <ele>619</ele>
        <time>2017-10-06T07:47:17Z</time>
      </trkpt>
      <trkpt lat="43.77626" lon="7.31148">
        <ele>620</ele>
        <time>2017-10-06T07:47:27Z</time>
      </trkpt>
      <trkpt lat="43.77633" lon="7.31159">
        <ele>623</ele>
        <time>2017-10-06T07:47:37Z</time>
      </trkpt>
      <trkpt lat="43.77639" lon="7.31171">
        <ele>623</ele>
        <time>2017-10-06T07:47:47Z</time>
      </trkpt>
      <trkpt lat="43.77642" lon="7.31177">
        <ele>623</ele>
        <time>2017-10-06T07:47:52Z</time>
      </trkpt>
      <trkpt lat="43.77646" lon="7.31182">
        <ele>623</ele>
        <time>2017-10-06T07:47:57Z</time>
      </trkpt>
      <trkpt lat="43.7765" lon="7.31189">
        <ele>623</ele>
        <time>2017-10-06T07:48:02Z</time>
      </trkpt>
      <trkpt lat="43.77653" lon="7.31195">
        <ele>623</ele>
        <time>2017-10-06T07:48:07Z</time>
      </trkpt>
      <trkpt lat="43.77659" lon="7.31206">
        <ele>625</ele>
        <time>2017-10-06T07:48:17Z</time>
      </trkpt>
      <trkpt lat="43.77664" lon="7.31218">
        <ele>627</ele>
        <time>2017-10-06T07:48:27Z</time>
      </trkpt>
      <trkpt lat="43.77669" lon="7.31231">
        <ele>628</ele>
        <time>2017-10-06T07:48:37Z</time>
      </trkpt>
      <trkpt lat="43.77671" lon="7.31246">
        <ele>629</ele>
        <time>2017-10-06T07:48:47Z</time>
      </trkpt>
      <trkpt lat="43.77673" lon="7.31261">
        <ele>630</ele>
        <time>2017-10-06T07:48:57Z</time>
      </trkpt>
      <trkpt lat="43.77673" lon="7.31276">
        <ele>631</ele>
        <time>2017-10-06T07:49:07Z</time>
      </trkpt>
      <trkpt lat="43.77672" lon="7.31291">
        <ele>633</ele>
        <time>2017-10-06T07:49:17Z</time>
      </trkpt>
      <trkpt lat="43.7767" lon="7.31299">
        <ele>633</ele>
        <time>2017-10-06T07:49:22Z</time>
      </trkpt>
      <trkpt lat="43.77669" lon="7.31307">
        <ele>633</ele>
        <time>2017-10-06T07:49:27Z</time>
      </trkpt>
      <trkpt lat="43.77665" lon="7.31319">
        <ele>633</ele>
        <time>2017-10-06T07:49:36Z</time>
      </trkpt>
      <trkpt lat="43.77662" lon="7.31327">
        <ele>632</ele>
        <time>2017-10-06T07:49:42Z</time>
      </trkpt>
      <trkpt lat="43.77657" lon="7.31333">
        <ele>632</ele>
        <time>2017-10-06T07:49:47Z</time>
      </trkpt>
      <trkpt lat="43.77655" lon="7.31339">
        <ele>631</ele>
        <time>2017-10-06T07:49:52Z</time>
      </trkpt>
      <trkpt lat="43.77651" lon="7.31344">
        <ele>632</ele>
        <time>2017-10-06T07:49:57Z</time>
      </trkpt>
      <trkpt lat="43.77646" lon="7.3135">
        <ele>632</ele>
        <time>2017-10-06T07:50:02Z</time>
      </trkpt>
      <trkpt lat="43.77641" lon="7.31354">
        <ele>632</ele>
        <time>2017-10-06T07:50:07Z</time>
      </trkpt>
      <trkpt lat="43.77633" lon="7.31363">
        <ele>632</ele>
        <time>2017-10-06T07:50:17Z</time>
      </trkpt>
      <trkpt lat="43.77625" lon="7.31373">
        <ele>632</ele>
        <time>2017-10-06T07:50:27Z</time>
      </trkpt>
      <trkpt lat="43.7762" lon="7.31376">
        <ele>631</ele>
        <time>2017-10-06T07:50:37Z</time>
      </trkpt>
      <trkpt lat="43.77654" lon="7.31364">
        <ele>581.5</ele>
      </trkpt>
      <trkpt lat="43.77689" lon="7.31314">
        <ele>580.8</ele>
      </trkpt>
      <trkpt lat="43.77707" lon="7.31255">
        <ele>581.6</ele>
      </trkpt>
      <trkpt lat="43.77679" lon="7.31137">
        <ele>602.1</ele>
      </trkpt>
      <trkpt lat="43.77675" lon="7.31073">
        <ele>609.6</ele>
      </trkpt>
      <trkpt lat="43.77679" lon="7.30994">
        <ele>614.4</ele>
      </trkpt>
      <trkpt lat="43.77686" lon="7.3093">
        <ele>622.6</ele>
      </trkpt>
      <trkpt lat="43.77681" lon="7.30919">
        <ele>619.7</ele>
      </trkpt>
      <trkpt lat="43.77688" lon="7.30911">
        <ele>630.3</ele>
      </trkpt>
      <trkpt lat="43.77683" lon="7.30888">
        <ele>634.6</ele>
      </trkpt>
      <trkpt lat="43.77672" lon="7.30866">
        <ele>638</ele>
      </trkpt>
      <trkpt lat="43.77653" lon="7.3085">
        <ele>623.6</ele>
      </trkpt>
      <trkpt lat="43.77618" lon="7.30826">
        <ele>637.3</ele>
      </trkpt>
      <trkpt lat="43.77596" lon="7.30813">
        <ele>634.6</ele>
      </trkpt>
      <trkpt lat="43.77572" lon="7.30799">
        <ele>620.3</ele>
      </trkpt>
      <trkpt lat="43.77549" lon="7.30788">
        <ele>618.5</ele>
      </trkpt>
      <trkpt lat="43.77531" lon="7.30776">
        <ele>616.5</ele>
      </trkpt>
      <trkpt lat="43.77525" lon="7.30757">
        <ele>616.3</ele>
      </trkpt>
      <trkpt lat="43.77523" lon="7.30735">
        <ele>618.7</ele>
      </trkpt>
      <trkpt lat="43.77535" lon="7.30707">
        <ele>619.8</ele>
      </trkpt>
      <trkpt lat="43.77553" lon="7.30683">
        <ele>622.9</ele>
      </trkpt>
      <trkpt lat="43.77574" lon="7.30656">
        <ele>619.1</ele>
      </trkpt>
      <trkpt lat="43.77597" lon="7.30634">
        <ele>634.7</ele>
      </trkpt>
      <trkpt lat="43.77614" lon="7.30617">
        <ele>634.5</ele>
      </trkpt>
      <trkpt lat="43.77632" lon="7.30593">
        <ele>636.6</ele>
      </trkpt>
      <trkpt lat="43.7767" lon="7.30549">
        <ele>649.6</ele>
      </trkpt>
      <trkpt lat="43.7768" lon="7.30534">
        <ele>648</ele>
      </trkpt>
      <trkpt lat="43.7769" lon="7.30518">
        <ele>646.5</ele>
      </trkpt>
      <trkpt lat="43.77697" lon="7.305">
        <ele>635.6</ele>
      </trkpt>
      <trkpt lat="43.77709" lon="7.3048">
        <ele>638.6</ele>
      </trkpt>
      <trkpt lat="43.77725" lon="7.30462">
        <ele>641</ele>
      </trkpt>
      <trkpt lat="43.77738" lon="7.30442">
        <ele>642.5</ele>
      </trkpt>
      <trkpt lat="43.77754" lon="7.30416">
        <ele>654.6</ele>
      </trkpt>
      <trkpt lat="43.77763" lon="7.30396">
        <ele>665.5</ele>
      </trkpt>
      <trkpt lat="43.77761" lon="7.30363">
        <ele>668.8</ele>
      </trkpt>
      <trkpt lat="43.77752" lon="7.30323">
        <ele>667.4</ele>
      </trkpt>
      <trkpt lat="43.77743" lon="7.30305">
        <ele>654.7</ele>
      </trkpt>
      <trkpt lat="43.77726" lon="7.30277">
        <ele>655.4</ele>
      </trkpt>
      <trkpt lat="43.77708" lon="7.30248">
        <ele>659.5</ele>
      </trkpt>
      <trkpt lat="43.77698" lon="7.3023">
        <ele>657.7</ele>
      </trkpt>
      <trkpt lat="43.77693" lon="7.30211">
        <ele>658.4</ele>
      </trkpt>
      <trkpt lat="43.77691" lon="7.30179">
        <ele>659.3</ele>
      </trkpt>
      <trkpt lat="43.77689" lon="7.30162">
        <ele>657.6</ele>
      </trkpt>
      <trkpt lat="43.77692" lon="7.30144">
        <ele>657.4</ele>
      </trkpt>
      <trkpt lat="43.77698" lon="7.3015">
        <ele>658</ele>
      </trkpt>
      <trkpt lat="43.77706" lon="7.30141">
        <ele>658.3</ele>
      </trkpt>
      <trkpt lat="43.77715" lon="7.30129">
        <ele>657.9</ele>
      </trkpt>
      <trkpt lat="43.77732" lon="7.3013">
        <ele>658.9</ele>
      </trkpt>
      <trkpt lat="43.7775" lon="7.3013">
        <ele>659.5</ele>
      </trkpt>
      <trkpt lat="43.77769" lon="7.30127">
        <ele>665.3</ele>
      </trkpt>
      <trkpt lat="43.77782" lon="7.30127">
        <ele>666</ele>
      </trkpt>
      <trkpt lat="43.77793" lon="7.30123">
        <ele>666</ele>
      </trkpt>
      <trkpt lat="43.77801" lon="7.30124">
        <ele>666.6</ele>
      </trkpt>
      <trkpt lat="43.77809" lon="7.30117">
        <ele>665.8</ele>
      </trkpt>
      <trkpt lat="43.77821" lon="7.30121">
        <ele>667</ele>
      </trkpt>
      <trkpt lat="43.77833" lon="7.30119">
        <ele>677.3</ele>
      </trkpt>
      <trkpt lat="43.77846" lon="7.30114">
        <ele>677.3</ele>
      </trkpt>
      <trkpt lat="43.77859" lon="7.30114">
        <ele>679.4</ele>
      </trkpt>
      <trkpt lat="43.77867" lon="7.30113">
        <ele>680.7</ele>
      </trkpt>
      <trkpt lat="43.77871" lon="7.30101">
        <ele>680.1</ele>
      </trkpt>
      <trkpt lat="43.77876" lon="7.30085">
        <ele>680</ele>
      </trkpt>
      <trkpt lat="43.77881" lon="7.30067">
        <ele>671.6</ele>
      </trkpt>
      <trkpt lat="43.77882" lon="7.30053">
        <ele>670.8</ele>
      </trkpt>
      <trkpt lat="43.77884" lon="7.30045">
        <ele>670.6</ele>
      </trkpt>
      <trkpt lat="43.77888" lon="7.30025">
        <ele>670.9</ele>
      </trkpt>
      <trkpt lat="43.77891" lon="7.3001">
        <ele>672</ele>
      </trkpt>
      <trkpt lat="43.77894" lon="7.29991">
        <ele>667.5</ele>
      </trkpt>
      <trkpt lat="43.77893" lon="7.2997">
        <ele>664</ele>
      </trkpt>
      <trkpt lat="43.77893" lon="7.29957">
        <ele>662.6</ele>
      </trkpt>
      <trkpt lat="43.77899" lon="7.29938">
        <ele>663.7</ele>
      </trkpt>
      <trkpt lat="43.77904" lon="7.2993">
        <ele>665.7</ele>
      </trkpt>
      <trkpt lat="43.77906" lon="7.29915">
        <ele>664.9</ele>
      </trkpt>
      <trkpt lat="43.77909" lon="7.29906">
        <ele>663.4</ele>
      </trkpt>
      <trkpt lat="43.77916" lon="7.29896">
        <ele>660.9</ele>
      </trkpt>
      <trkpt lat="43.77921" lon="7.29877">
        <ele>665.5</ele>
      </trkpt>
      <trkpt lat="43.77927" lon="7.29863">
        <ele>664</ele>
      </trkpt>
      <trkpt lat="43.77932" lon="7.29845">
        <ele>662.6</ele>
      </trkpt>
      <trkpt lat="43.77934" lon="7.29834">
        <ele>662.2</ele>
      </trkpt>
      <trkpt lat="43.77934" lon="7.29828">
        <ele>659.4</ele>
      </trkpt>
      <trkpt lat="43.77927" lon="7.29829">
        <ele>659.9</ele>
      </trkpt>
      <trkpt lat="43.77923" lon="7.2983">
        <ele>660.3</ele>
      </trkpt>
      <trkpt lat="43.77917" lon="7.29824">
        <ele>660.1</ele>
      </trkpt>
      <trkpt lat="43.77913" lon="7.29814">
        <ele>655.2</ele>
      </trkpt>
      <trkpt lat="43.77905" lon="7.29801">
        <ele>653.5</ele>
      </trkpt>
      <trkpt lat="43.77898" lon="7.2979">
        <ele>652.9</ele>
      </trkpt>
      <trkpt lat="43.77888" lon="7.29779">
        <ele>652.1</ele>
      </trkpt>
      <trkpt lat="43.77879" lon="7.29779">
        <ele>650.7</ele>
      </trkpt>
      <trkpt lat="43.77864" lon="7.29776">
        <ele>648.6</ele>
      </trkpt>
      <trkpt lat="43.77843" lon="7.2977">
        <ele>646.1</ele>
      </trkpt>
      <trkpt lat="43.77834" lon="7.29766">
        <ele>645.3</ele>
      </trkpt>
      <trkpt lat="43.77829" lon="7.2976">
        <ele>633.8</ele>
      </trkpt>
      <trkpt lat="43.77823" lon="7.29749">
        <ele>635</ele>
      </trkpt>
      <trkpt lat="43.77821" lon="7.29736">
        <ele>630.7</ele>
      </trkpt>
      <trkpt lat="43.7782" lon="7.29718">
        <ele>626.5</ele>
      </trkpt>
      <trkpt lat="43.77818" lon="7.297">
        <ele>625.9</ele>
      </trkpt>
      <trkpt lat="43.77815" lon="7.29681">
        <ele>627.4</ele>
      </trkpt>
      <trkpt lat="43.77811" lon="7.29676">
        <ele>626.6</ele>
      </trkpt>
      <trkpt lat="43.77806" lon="7.29691">
        <ele>623.3</ele>
      </trkpt>
      <trkpt lat="43.77801" lon="7.29708">
        <ele>621.7</ele>
      </trkpt>
      <trkpt lat="43.77789" lon="7.29754">
        <ele>616.7</ele>
      </trkpt>
      <trkpt lat="43.77783" lon="7.29792">
        <ele>613.9</ele>
      </trkpt>
      <trkpt lat="43.77785" lon="7.29802">
        <ele>613.7</ele>
      </trkpt>
      <trkpt lat="43.77792" lon="7.2981">
        <ele>615.1</ele>
      </trkpt>
      <trkpt lat="43.77782" lon="7.29812">
        <ele>612</ele>
      </trkpt>
      <trkpt lat="43.77774" lon="7.29805">
        <ele>611</ele>
      </trkpt>
      <trkpt lat="43.77767" lon="7.29793">
        <ele>610</ele>
      </trkpt>
      <trkpt lat="43.77762" lon="7.29769">
        <ele>608.4</ele>
      </trkpt>
      <trkpt lat="43.77759" lon="7.29742">
        <ele>606</ele>
      </trkpt>
      <trkpt lat="43.77757" lon="7.29724">
        <ele>610.1</ele>
      </trkpt>
      <trkpt lat="43.77755" lon="7.29718">
        <ele>610.5</ele>
      </trkpt>
      <trkpt lat="43.7775" lon="7.29737">
        <ele>605.8</ele>
      </trkpt>
      <trkpt lat="43.77745" lon="7.29754">
        <ele>592.1</ele>
      </trkpt>
      <trkpt lat="43.7774" lon="7.29771">
        <ele>584.3</ele>
      </trkpt>
      <trkpt lat="43.77737" lon="7.29791">
        <ele>581</ele>
      </trkpt>
      <trkpt lat="43.77736" lon="7.29804">
        <ele>581.3</ele>
      </trkpt>
      <trkpt lat="43.77729" lon="7.29792">
        <ele>579.6</ele>
      </trkpt>
      <trkpt lat="43.77726" lon="7.29802">
        <ele>579.2</ele>
      </trkpt>
      <trkpt lat="43.77726" lon="7.2982">
        <ele>580.8</ele>
      </trkpt>
      <trkpt lat="43.77726" lon="7.29842">
        <ele>587.3</ele>
      </trkpt>
      <trkpt lat="43.77727" lon="7.29858">
        <ele>587.5</ele>
      </trkpt>
      <trkpt lat="43.77733" lon="7.29869">
        <ele>588.5</ele>
      </trkpt>
      <trkpt lat="43.77729" lon="7.29882">
        <ele>589</ele>
      </trkpt>
      <trkpt lat="43.77721" lon="7.29888">
        <ele>588.9</ele>
      </trkpt>
      <trkpt lat="43.77716" lon="7.29891">
        <ele>588.8</ele>
      </trkpt>
      <trkpt lat="43.77708" lon="7.29885">
        <ele>587.6</ele>
      </trkpt>
      <trkpt lat="43.77699" lon="7.29883">
        <ele>586.6</ele>
      </trkpt>
      <trkpt lat="43.77689" lon="7.29883">
        <ele>586</ele>
      </trkpt>
      <trkpt lat="43.77679" lon="7.29881">
        <ele>585.2</ele>
      </trkpt>
      <trkpt lat="43.77669" lon="7.2988">
        <ele>584.6</ele>
      </trkpt>
      <trkpt lat="43.77659" lon="7.29872">
        <ele>578</ele>
      </trkpt>
      <trkpt lat="43.77648" lon="7.29865">
        <ele>576.5</ele>
      </trkpt>
      <trkpt lat="43.77632" lon="7.29854">
        <ele>575.1</ele>
      </trkpt>
      <trkpt lat="43.77619" lon="7.29848">
        <ele>574.5</ele>
      </trkpt>
      <trkpt lat="43.77601" lon="7.29838">
        <ele>571.3</ele>
      </trkpt>
      <trkpt lat="43.77586" lon="7.29831">
        <ele>562.3</ele>
      </trkpt>
      <trkpt lat="43.77573" lon="7.29825">
        <ele>555.2</ele>
      </trkpt>
      <trkpt lat="43.77558" lon="7.2982">
        <ele>549.9</ele>
      </trkpt>
      <trkpt lat="43.7754" lon="7.29815">
        <ele>546.8</ele>
      </trkpt>
      <trkpt lat="43.77524" lon="7.29811">
        <ele>545.9</ele>
      </trkpt>
      <trkpt lat="43.77513" lon="7.29817">
        <ele>547.4</ele>
      </trkpt>
      <trkpt lat="43.77494" lon="7.29832">
        <ele>546.1</ele>
      </trkpt>
      <trkpt lat="43.77479" lon="7.29849">
        <ele>548.4</ele>
      </trkpt>
      <trkpt lat="43.77467" lon="7.29864">
        <ele>547.1</ele>
      </trkpt>
      <trkpt lat="43.77455" lon="7.2988">
        <ele>546.3</ele>
      </trkpt>
      <trkpt lat="43.77441" lon="7.29894">
        <ele>544.6</ele>
      </trkpt>
      <trkpt lat="43.77435" lon="7.29899">
        <ele>543.6</ele>
      </trkpt>
      <trkpt lat="43.77436" lon="7.29882">
        <ele>542.9</ele>
      </trkpt>
      <trkpt lat="43.77429" lon="7.2989">
        <ele>542.5</ele>
      </trkpt>
      <trkpt lat="43.77418" lon="7.299">
        <ele>541.2</ele>
      </trkpt>
      <trkpt lat="43.77401" lon="7.29911">
        <ele>523.4</ele>
      </trkpt>
      <trkpt lat="43.77389" lon="7.29925">
        <ele>527.6</ele>
      </trkpt>
      <trkpt lat="43.77376" lon="7.29944">
        <ele>524.5</ele>
      </trkpt>
      <trkpt lat="43.7737" lon="7.29957">
        <ele>524.1</ele>
      </trkpt>
      <trkpt lat="43.77365" lon="7.29969">
        <ele>524</ele>
      </trkpt>
      <trkpt lat="43.77358" lon="7.29962">
        <ele>521.9</ele>
      </trkpt>
      <trkpt lat="43.7735" lon="7.2997">
        <ele>520.9</ele>
      </trkpt>
      <trkpt lat="43.77324" lon="7.30007">
        <ele>509.5</ele>
      </trkpt>
      <trkpt lat="43.77319" lon="7.30021">
        <ele>507.4</ele>
      </trkpt>
      <trkpt lat="43.77311" lon="7.30028">
        <ele>506</ele>
      </trkpt>
      <trkpt lat="43.77305" lon="7.30032">
        <ele>505.2</ele>
      </trkpt>
      <trkpt lat="43.77299" lon="7.30044">
        <ele>504.7</ele>
      </trkpt>
      <trkpt lat="43.77295" lon="7.3005">
        <ele>504.3</ele>
      </trkpt>
      <trkpt lat="43.77277" lon="7.30052">
        <ele>500.9</ele>
      </trkpt>
      <trkpt lat="43.77263" lon="7.30057">
        <ele>498.4</ele>
      </trkpt>
      <trkpt lat="43.77246" lon="7.30051">
        <ele>483</ele>
      </trkpt>
      <trkpt lat="43.77233" lon="7.30041">
        <ele>481.7</ele>
      </trkpt>
      <trkpt lat="43.77222" lon="7.30032">
        <ele>480.9</ele>
      </trkpt>
      <trkpt lat="43.77214" lon="7.30029">
        <ele>480.1</ele>
      </trkpt>
      <trkpt lat="43.77206" lon="7.30025">
        <ele>479.5</ele>
      </trkpt>
      <trkpt lat="43.77196" lon="7.30021">
        <ele>478.6</ele>
      </trkpt>
      <trkpt lat="43.7718" lon="7.30006">
        <ele>476.9</ele>
      </trkpt>
      <trkpt lat="43.77172" lon="7.29996">
        <ele>476.2</ele>
      </trkpt>
      <trkpt lat="43.77169" lon="7.29988">
        <ele>476.9</ele>
      </trkpt>
      <trkpt lat="43.7717" lon="7.2997">
        <ele>478.3</ele>
      </trkpt>
      <trkpt lat="43.77167" lon="7.29954">
        <ele>479</ele>
      </trkpt>
      <trkpt lat="43.77163" lon="7.29939">
        <ele>477.6</ele>
      </trkpt>
      <trkpt lat="43.77166" lon="7.29922">
        <ele>480</ele>
      </trkpt>
      <trkpt lat="43.77172" lon="7.29903">
        <ele>479.1</ele>
      </trkpt>
      <trkpt lat="43.7718" lon="7.29882">
        <ele>478</ele>
      </trkpt>
      <trkpt lat="43.77187" lon="7.29866">
        <ele>477.7</ele>
      </trkpt>
      <trkpt lat="43.77194" lon="7.29847">
        <ele>477.5</ele>
      </trkpt>
      <trkpt lat="43.77196" lon="7.29824">
        <ele>475.5</ele>
      </trkpt>
      <trkpt lat="43.77196" lon="7.29811">
        <ele>475</ele>
      </trkpt>
      <trkpt lat="43.77197" lon="7.29798">
        <ele>474.4</ele>
      </trkpt>
      <trkpt lat="43.77198" lon="7.29785">
        <ele>474.3</ele>
      </trkpt>
      <trkpt lat="43.77199" lon="7.29764">
        <ele>474.4</ele>
      </trkpt>
      <trkpt lat="43.77195" lon="7.29747">
        <ele>473.2</ele>
      </trkpt>
      <trkpt lat="43.77192" lon="7.29735">
        <ele>473.4</ele>
      </trkpt>
      <trkpt lat="43.77183" lon="7.29732">
        <ele>475.1</ele>
      </trkpt>
      <trkpt lat="43.77188" lon="7.2971">
        <ele>471.7</ele>
      </trkpt>
      <trkpt lat="43.77185" lon="7.29686">
        <ele>472.2</ele>
      </trkpt>
      <trkpt lat="43.77182" lon="7.29671">
        <ele>473.7</ele>
      </trkpt>
      <trkpt lat="43.77177" lon="7.29663">
        <ele>473.3</ele>
      </trkpt>
      <trkpt lat="43.7716" lon="7.2966">
        <ele>484.1</ele>
      </trkpt>
      <trkpt lat="43.77144" lon="7.29654">
        <ele>490.5</ele>
      </trkpt>
      <trkpt lat="43.77143" lon="7.29646">
        <ele>491.2</ele>
      </trkpt>
      <trkpt lat="43.7715" lon="7.29633">
        <ele>490.5</ele>
      </trkpt>
      <trkpt lat="43.77158" lon="7.29625">
        <ele>489.2</ele>
      </trkpt>
      <trkpt lat="43.77163" lon="7.29613">
        <ele>487.5</ele>
      </trkpt>
      <trkpt lat="43.77168" lon="7.29602">
        <ele>469.1</ele>
      </trkpt>
      <trkpt lat="43.77165" lon="7.29578">
        <ele>478</ele>
      </trkpt>
      <trkpt lat="43.77144" lon="7.29559">
        <ele>489.7</ele>
      </trkpt>
      <trkpt lat="43.77148" lon="7.29539">
        <ele>490.4</ele>
      </trkpt>
      <trkpt lat="43.77155" lon="7.29526">
        <ele>488.7</ele>
      </trkpt>
      <trkpt lat="43.77166" lon="7.29509">
        <ele>483.4</ele>
      </trkpt>
      <trkpt lat="43.77175" lon="7.29494">
        <ele>473.2</ele>
      </trkpt>
      <trkpt lat="43.77188" lon="7.29484">
        <ele>467.9</ele>
      </trkpt>
      <trkpt lat="43.77196" lon="7.29469">
        <ele>465.1</ele>
      </trkpt>
      <trkpt lat="43.77207" lon="7.29446">
        <ele>463.2</ele>
      </trkpt>
      <trkpt lat="43.77211" lon="7.29435">
        <ele>462.7</ele>
      </trkpt>
      <trkpt lat="43.77217" lon="7.29418">
        <ele>461.7</ele>
      </trkpt>
      <trkpt lat="43.77224" lon="7.29394">
        <ele>457.1</ele>
      </trkpt>
      <trkpt lat="43.77222" lon="7.29374">
        <ele>456.2</ele>
      </trkpt>
      <trkpt lat="43.77221" lon="7.29367">
        <ele>455.9</ele>
      </trkpt>
      <trkpt lat="43.77166" lon="7.2938">
        <ele>471</ele>
      </trkpt>
      <trkpt lat="43.77149" lon="7.29379">
        <ele>472.6</ele>
      </trkpt>
      <trkpt lat="43.77138" lon="7.29374">
        <ele>473.8</ele>
      </trkpt>
      <trkpt lat="43.77134" lon="7.29372">
        <ele>474.3</ele>
      </trkpt>
      <trkpt lat="43.77127" lon="7.29304">
        <ele>459.6</ele>
      </trkpt>
      <trkpt lat="43.7712" lon="7.29272">
        <ele>459.3</ele>
      </trkpt>
      <trkpt lat="43.77108" lon="7.29218">
        <ele>452.2</ele>
      </trkpt>
      <trkpt lat="43.77112" lon="7.2919">
        <ele>449.9</ele>
      </trkpt>
      <trkpt lat="43.77115" lon="7.29147">
        <ele>439</ele>
      </trkpt>
      <trkpt lat="43.77112" lon="7.29126">
        <ele>437</ele>
      </trkpt>
      <trkpt lat="43.77115" lon="7.29106">
        <ele>435</ele>
      </trkpt>
      <trkpt lat="43.77121" lon="7.29077">
        <ele>419.3</ele>
      </trkpt>
      <trkpt lat="43.77122" lon="7.29055">
        <ele>416</ele>
      </trkpt>
      <trkpt lat="43.77077" lon="7.29034">
        <ele>428.5</ele>
      </trkpt>
      <trkpt lat="43.77049" lon="7.29028">
        <ele>427.7</ele>
      </trkpt>
      <trkpt lat="43.77022" lon="7.29028">
        <ele>426.8</ele>
      </trkpt>
      <trkpt lat="43.77003" lon="7.2903">
        <ele>426.5</ele>
      </trkpt>
      <trkpt lat="43.76983" lon="7.29037">
        <ele>430.1</ele>
      </trkpt>
      <trkpt lat="43.76962" lon="7.29047">
        <ele>432.4</ele>
      </trkpt>
      <trkpt lat="43.76944" lon="7.29057">
        <ele>433.8</ele>
      </trkpt>
      <trkpt lat="43.76927" lon="7.29069">
        <ele>435.7</ele>
      </trkpt>
      <trkpt lat="43.76922" lon="7.29063">
        <ele>435.1</ele>
      </trkpt>
      <trkpt lat="43.76923" lon="7.29044">
        <ele>432.6</ele>
      </trkpt>
      <trkpt lat="43.76927" lon="7.29021">
        <ele>430.1</ele>
      </trkpt>
      <trkpt lat="43.76929" lon="7.29002">
        <ele>428.8</ele>
      </trkpt>
      <trkpt lat="43.76933" lon="7.28988">
        <ele>422.8</ele>
      </trkpt>
      <trkpt lat="43.76933" lon="7.28978">
        <ele>422.2</ele>
      </trkpt>
      <trkpt lat="43.76926" lon="7.28968">
        <ele>422.5</ele>
      </trkpt>
      <trkpt lat="43.76925" lon="7.28952">
        <ele>423.2</ele>
      </trkpt>
      <trkpt lat="43.76926" lon="7.28938">
        <ele>425</ele>
      </trkpt>
      <trkpt lat="43.76933" lon="7.28912">
        <ele>428.6</ele>
      </trkpt>
      <trkpt lat="43.76941" lon="7.28899">
        <ele>425.6</ele>
      </trkpt>
      <trkpt lat="43.76953" lon="7.28883">
        <ele>423.2</ele>
      </trkpt>
      <trkpt lat="43.76961" lon="7.28874">
        <ele>422.1</ele>
      </trkpt>
      <trkpt lat="43.7697" lon="7.28858">
        <ele>421.1</ele>
      </trkpt>
      <trkpt lat="43.76984" lon="7.2884">
        <ele>418.1</ele>
      </trkpt>
      <trkpt lat="43.76993" lon="7.28828">
        <ele>418.8</ele>
      </trkpt>
      <trkpt lat="43.77001" lon="7.28811">
        <ele>406.9</ele>
      </trkpt>
      <trkpt lat="43.77011" lon="7.28794">
        <ele>405.8</ele>
      </trkpt>
      <trkpt lat="43.77023" lon="7.28783">
        <ele>405</ele>
      </trkpt>
      <trkpt lat="43.77042" lon="7.28765">
        <ele>401.9</ele>
      </trkpt>
      <trkpt lat="43.77054" lon="7.28754">
        <ele>398.7</ele>
      </trkpt>
      <trkpt lat="43.77063" lon="7.28746">
        <ele>398.9</ele>
      </trkpt>
      <trkpt lat="43.77077" lon="7.28728">
        <ele>398.1</ele>
      </trkpt>
      <trkpt lat="43.77087" lon="7.28701">
        <ele>377.5</ele>
      </trkpt>
      <trkpt lat="43.77098" lon="7.28671">
        <ele>382.1</ele>
      </trkpt>
      <trkpt lat="43.77105" lon="7.28642">
        <ele>375.3</ele>
      </trkpt>
      <trkpt lat="43.77113" lon="7.28604">
        <ele>371.4</ele>
      </trkpt>
      <trkpt lat="43.77117" lon="7.28564">
        <ele>362.3</ele>
      </trkpt>
      <trkpt lat="43.77115" lon="7.28553">
        <ele>361.1</ele>
      </trkpt>
      <trkpt lat="43.77095" lon="7.28556">
        <ele>364.5</ele>
      </trkpt>
      <trkpt lat="43.77069" lon="7.28567">
        <ele>371</ele>
      </trkpt>
      <trkpt lat="43.77049" lon="7.28575">
        <ele>369.9</ele>
      </trkpt>
      <trkpt lat="43.77039" lon="7.2858">
        <ele>370</ele>
      </trkpt>
      <trkpt lat="43.77022" lon="7.28573">
        <ele>370.3</ele>
      </trkpt>
      <trkpt lat="43.76997" lon="7.28557">
        <ele>372</ele>
      </trkpt>
      <trkpt lat="43.7697" lon="7.28521">
        <ele>366.1</ele>
      </trkpt>
      <trkpt lat="43.7695" lon="7.28499">
        <ele>353</ele>
      </trkpt>
      <trkpt lat="43.76946" lon="7.28483">
        <ele>352.3</ele>
      </trkpt>
    </trkseg>
  </trk>
</gpx>